createdAt,value
2022-11-13T00:00:43.776Z,6.70
2022-11-13T00:03:50.090Z,6.70
2022-11-13T00:06:59.363Z,6.80
2022-11-13T00:10:06.615Z,6.80
2022-11-13T00:13:12.849Z,6.70
2022-11-13T00:16:21.836Z,6.50
2022-11-13T00:19:28.426Z,6.50
2022-11-13T00:22:34.460Z,6.50
2022-11-13T00:25:40.601Z,6.40
2022-11-13T00:28:47.410Z,6.30
2022-11-13T00:31:56.300Z,6.10
2022-11-13T00:35:02.548Z,6.00
2022-11-13T00:38:08.794Z,5.90
2022-11-13T00:41:15.216Z,4.80
2022-11-13T00:44:21.374Z,5.80
2022-11-13T00:47:29.086Z,5.70
2022-11-13T00:50:35.318Z,5.60
2022-11-13T00:53:41.679Z,5.50
2022-11-13T00:56:48.342Z,5.60
2022-11-13T00:59:54.635Z,5.80
2022-11-13T01:03:02.775Z,6.00
2022-11-13T01:06:13.168Z,6.10
2022-11-13T01:09:22.045Z,6.10
2022-11-13T01:12:28.798Z,5.90
2022-11-13T01:15:34.893Z,5.80
2022-11-13T01:18:43.007Z,5.80
2022-11-13T01:21:49.432Z,6.30
2022-11-13T01:24:57.151Z,5.90
2022-11-13T01:28:03.173Z,5.90
2022-11-13T01:31:09.924Z,5.80
2022-11-13T01:34:18.211Z,5.60
2022-11-13T01:37:27.902Z,5.50
2022-11-13T01:40:34.173Z,5.50
2022-11-13T01:43:40.403Z,5.50
2022-11-13T01:46:49.870Z,5.50
2022-11-13T01:49:58.755Z,5.40
2022-11-13T01:53:04.827Z,5.30
2022-11-13T01:56:11.183Z,5.20
2022-11-13T01:59:19.072Z,5.20
2022-11-13T02:02:25.540Z,5.30
2022-11-13T02:05:33.708Z,5.50
2022-11-13T02:08:40.051Z,5.60
2022-11-13T02:11:49.064Z,5.50
2022-11-13T02:14:56.314Z,5.40
2022-11-13T02:18:04.907Z,5.30
2022-11-13T02:21:19.465Z,5.20
2022-11-13T02:24:29.165Z,5.10
2022-11-13T02:27:37.703Z,5.00
2022-11-13T02:30:43.927Z,4.80
2022-11-13T02:33:50.529Z,4.70
2022-11-13T02:36:57.034Z,4.60
2022-11-13T02:40:06.827Z,4.50
2022-11-13T02:43:13.161Z,4.50
2022-11-13T02:46:19.339Z,4.70
2022-11-13T02:49:29.155Z,2.20
2022-11-13T02:52:35.539Z,5.00
2022-11-13T02:55:43.723Z,4.80
2022-11-13T02:58:50.109Z,4.80
2022-11-13T03:01:56.390Z,4.70
2022-11-13T03:05:11.826Z,4.60
2022-11-13T03:08:19.906Z,4.80
2022-11-13T03:11:27.662Z,4.70
2022-11-13T03:14:34.061Z,5.10
2022-11-13T03:17:40.699Z,4.80
2022-11-13T03:20:46.721Z,4.90
2022-11-13T03:23:53.000Z,4.90
2022-11-13T03:27:00.734Z,5.00
2022-11-13T03:30:07.514Z,5.30
2022-11-13T03:33:13.617Z,5.00
2022-11-13T03:36:20.418Z,4.90
2022-11-13T03:39:26.357Z,4.90
2022-11-13T03:42:35.144Z,4.90
2022-11-13T03:45:41.827Z,4.90
2022-11-13T03:48:47.949Z,4.80
2022-11-13T03:51:54.144Z,4.90
2022-11-13T03:55:00.840Z,5.00
2022-11-13T03:58:08.531Z,5.00
2022-11-13T04:01:14.831Z,5.00
2022-11-13T04:04:21.224Z,5.10
2022-11-13T04:07:27.406Z,5.10
2022-11-13T04:10:33.878Z,5.20
2022-11-13T04:13:41.222Z,5.10
2022-11-13T04:16:47.728Z,5.30
2022-11-13T04:19:54.125Z,5.30
2022-11-13T04:23:00.527Z,5.30
2022-11-13T04:26:06.889Z,5.30
2022-11-13T04:29:16.690Z,5.20
2022-11-13T04:32:23.179Z,5.10
2022-11-13T04:35:29.258Z,5.00
2022-11-13T04:38:35.648Z,5.00
2022-11-13T04:41:59.387Z,5.00
2022-11-13T04:45:07.350Z,4.90
2022-11-13T04:48:13.660Z,4.70
2022-11-13T04:51:22.701Z,4.70
2022-11-13T04:54:29.249Z,4.70
2022-11-13T04:57:36.091Z,4.60
2022-11-13T05:00:43.384Z,4.50
2022-11-13T05:03:49.541Z,4.30
2022-11-13T05:06:56.044Z,4.20
2022-11-13T05:10:02.620Z,4.20
2022-11-13T05:13:08.886Z,4.20
2022-11-13T05:16:16.898Z,2.80
2022-11-13T05:19:23.668Z,4.10
2022-11-13T05:22:29.929Z,4.10
2022-11-13T05:25:35.798Z,2.60
2022-11-13T05:28:42.032Z,4.30
2022-11-13T05:31:52.529Z,4.20
2022-11-13T05:34:58.991Z,4.30
2022-11-13T05:38:04.949Z,4.40
2022-11-13T05:41:12.450Z,4.50
2022-11-13T05:44:18.468Z,4.50
2022-11-13T05:47:25.776Z,4.60
2022-11-13T05:50:31.940Z,4.60
2022-11-13T05:53:38.401Z,4.60
2022-11-13T05:56:45.445Z,4.70
2022-11-13T05:59:51.596Z,4.50
2022-11-13T06:02:59.161Z,4.50
2022-11-13T06:06:05.839Z,4.40
2022-11-13T06:09:13.205Z,4.30
2022-11-13T06:12:19.155Z,4.30
2022-11-13T06:15:25.407Z,4.10
2022-11-13T06:18:34.065Z,4.10
2022-11-13T06:21:41.298Z,4.00
2022-11-13T06:24:47.855Z,3.80
2022-11-13T06:27:54.121Z,3.70
2022-11-13T06:31:03.846Z,3.50
2022-11-13T06:34:11.702Z,3.50
2022-11-13T06:37:17.985Z,3.60
2022-11-13T06:40:24.522Z,3.70
2022-11-13T06:43:31.197Z,3.70
2022-11-13T06:46:37.639Z,3.60
2022-11-13T06:49:45.113Z,3.70
2022-11-13T06:52:51.383Z,3.60
2022-11-13T06:55:58.227Z,3.60
2022-11-13T06:59:08.314Z,3.60
2022-11-13T07:02:15.040Z,3.60
2022-11-13T07:05:22.678Z,3.60
2022-11-13T07:08:29.049Z,3.60
2022-11-13T07:11:35.532Z,3.60
2022-11-13T07:14:41.957Z,3.60
2022-11-13T07:17:50.899Z,3.60
2022-11-13T07:20:58.477Z,3.60
2022-11-13T07:24:05.693Z,3.60
2022-11-13T07:27:12.070Z,3.60
2022-11-13T07:30:21.524Z,3.70
2022-11-13T07:33:27.541Z,3.70
2022-11-13T07:36:35.296Z,3.60
2022-11-13T07:39:41.520Z,3.50
2022-11-13T07:42:47.815Z,3.50
2022-11-13T07:45:55.641Z,3.50
2022-11-13T07:49:01.759Z,3.50
2022-11-13T07:52:09.476Z,3.60
2022-11-13T07:55:16.611Z,3.60
2022-11-13T07:58:22.886Z,3.70
2022-11-13T08:01:28.864Z,3.80
2022-11-13T08:04:35.094Z,3.80
2022-11-13T08:07:45.095Z,3.90
2022-11-13T08:10:54.872Z,3.90
2022-11-13T08:14:01.015Z,4.00
2022-11-13T08:17:07.053Z,4.10
2022-11-13T08:20:13.416Z,4.20
2022-11-13T08:23:21.974Z,4.30
2022-11-13T08:26:38.934Z,4.40
2022-11-13T08:29:47.010Z,4.50
2022-11-13T08:32:53.351Z,5.30
2022-11-13T08:36:00.457Z,4.70
2022-11-13T08:39:08.306Z,4.70
2022-11-13T08:42:14.446Z,4.90
2022-11-13T08:45:21.744Z,4.90
2022-11-13T08:48:28.237Z,5.10
2022-11-13T08:51:34.900Z,5.10
2022-11-13T08:54:42.808Z,5.20
2022-11-13T08:57:50.380Z,5.30
2022-11-13T09:01:00.580Z,5.40
2022-11-13T09:04:07.102Z,5.60
2022-11-13T09:07:13.676Z,5.70
2022-11-13T09:10:21.351Z,5.90
2022-11-13T09:13:28.245Z,5.90
2022-11-13T09:16:34.720Z,6.10
2022-11-13T09:19:41.033Z,6.20
2022-11-13T09:22:47.122Z,6.30
2022-11-13T09:25:55.952Z,6.40
2022-11-13T09:29:02.310Z,6.50
2022-11-13T09:32:08.666Z,6.30
2022-11-13T09:35:14.964Z,6.70
2022-11-13T09:38:21.415Z,6.90
2022-11-13T09:41:31.114Z,7.00
2022-11-13T09:44:41.640Z,7.20
2022-11-13T09:47:48.782Z,7.50
2022-11-13T09:50:58.062Z,7.40
2022-11-13T09:54:05.395Z,7.60
2022-11-13T09:57:25.605Z,7.80
2022-11-13T10:00:35.021Z,7.90
2022-11-13T10:07:21.649Z,8.10
2022-11-13T10:10:33.622Z,8.40
2022-11-13T10:13:47.627Z,8.40
2022-11-13T10:16:59.864Z,8.50
2022-11-13T10:20:11.340Z,8.60
2022-11-13T10:23:22.223Z,8.70
2022-11-13T10:26:30.582Z,8.70
2022-11-13T10:29:38.910Z,8.90
2022-11-13T10:32:46.889Z,9.00
2022-11-13T10:35:58.892Z,9.20
2022-11-13T10:39:06.897Z,9.30
2022-11-13T10:42:22.287Z,9.50
2022-11-13T10:45:31.990Z,9.60
2022-11-13T10:48:38.623Z,9.80
2022-11-13T10:51:45.118Z,10.10
2022-11-13T10:54:57.081Z,10.20
2022-11-13T10:58:04.680Z,10.40
2022-11-13T11:01:25.762Z,10.70
2022-11-13T11:04:31.965Z,10.60
2022-11-13T11:07:41.751Z,10.70
2022-11-13T11:11:13.543Z,10.90
2022-11-13T11:14:22.036Z,11.10
2022-11-13T11:17:32.807Z,11.10
2022-11-13T11:20:45.373Z,11.20
2022-11-13T11:23:56.225Z,11.40
2022-11-13T11:27:05.043Z,11.80
2022-11-13T11:30:21.541Z,12.00
2022-11-13T11:33:33.275Z,12.10
2022-11-13T11:36:56.093Z,12.00
2022-11-13T11:40:08.068Z,11.90
2022-11-13T11:43:20.082Z,12.00
2022-11-13T11:46:32.304Z,12.10
2022-11-13T11:49:41.093Z,12.10
2022-11-13T11:52:57.887Z,12.40
2022-11-13T11:56:14.031Z,12.40
2022-11-13T11:59:35.127Z,12.70
2022-11-13T12:02:59.837Z,12.90
2022-11-13T12:06:14.267Z,13.00
2022-11-13T12:09:24.766Z,13.00
2022-11-13T12:12:39.623Z,13.10
2022-11-13T12:15:48.781Z,13.30
2022-11-13T12:19:03.050Z,14.10
2022-11-13T12:22:15.109Z,14.50
2022-11-13T12:25:26.173Z,14.50
2022-11-13T12:28:41.102Z,14.20
2022-11-13T12:31:55.466Z,13.90
2022-11-13T12:35:04.895Z,13.70
2022-11-13T12:38:18.849Z,13.60
2022-11-13T12:41:29.967Z,13.50
2022-11-13T12:44:41.227Z,13.40
2022-11-13T12:47:49.879Z,13.40
2022-11-13T12:51:00.952Z,13.30
2022-11-13T12:54:10.758Z,13.40
2022-11-13T12:57:24.446Z,13.40
2022-11-13T13:00:35.791Z,13.40
2022-11-13T13:04:02.091Z,13.30
2022-11-13T13:07:20.462Z,13.20
2022-11-13T13:10:33.406Z,13.20
2022-11-13T13:13:45.799Z,13.30
2022-11-13T13:16:52.092Z,13.40
2022-11-13T13:20:02.525Z,13.60
2022-11-13T13:23:14.571Z,13.40
2022-11-13T13:26:27.860Z,14.20
2022-11-13T13:29:43.807Z,13.70
2022-11-13T13:32:53.865Z,13.50
2022-11-13T13:36:05.518Z,13.60
2022-11-13T13:39:20.249Z,13.70
2022-11-13T13:42:43.689Z,13.60
2022-11-13T13:45:56.765Z,14.00
2022-11-13T13:49:04.811Z,14.20
2022-11-13T13:52:15.264Z,14.40
2022-11-13T13:55:25.307Z,14.60
2022-11-13T13:58:34.997Z,15.00
2022-11-13T14:01:41.644Z,15.40
2022-11-13T14:04:48.896Z,15.80
2022-11-13T14:07:55.131Z,16.00
2022-11-13T14:11:04.309Z,16.10
2022-11-13T14:14:17.397Z,16.00
2022-11-13T14:17:24.563Z,17.50
2022-11-13T14:20:33.798Z,16.00
2022-11-13T14:23:44.736Z,16.10
2022-11-13T14:26:52.516Z,16.10
2022-11-13T14:30:01.620Z,16.00
2022-11-13T14:33:10.612Z,15.60
2022-11-13T14:36:18.550Z,15.20
2022-11-13T14:39:26.772Z,14.50
2022-11-13T14:42:37.833Z,14.50
2022-11-13T14:45:55.332Z,14.20
2022-11-13T14:49:01.735Z,14.10
2022-11-13T14:52:08.045Z,13.90
2022-11-13T14:55:22.546Z,13.70
2022-11-13T14:58:30.067Z,13.50
2022-11-13T15:01:37.730Z,13.50
2022-11-13T15:04:43.980Z,13.30
2022-11-13T15:07:50.703Z,13.10
2022-11-13T15:11:00.498Z,13.00
2022-11-13T15:14:12.278Z,12.90
2022-11-13T15:17:23.136Z,12.70
2022-11-13T15:20:30.247Z,12.60
2022-11-13T15:23:36.723Z,12.40
2022-11-13T15:26:43.112Z,12.30
2022-11-13T15:29:49.984Z,12.10
2022-11-13T15:32:57.607Z,12.00
2022-11-13T15:36:04.270Z,11.90
2022-11-13T15:39:18.527Z,11.80
2022-11-13T15:42:31.552Z,11.90
2022-11-13T15:45:42.801Z,11.70
2022-11-13T15:48:52.509Z,11.50
2022-11-13T15:51:59.128Z,11.40
2022-11-13T15:55:14.409Z,11.40
2022-11-13T15:58:20.499Z,11.10
2022-11-13T16:01:26.840Z,11.00
2022-11-13T16:04:54.949Z,10.80
2022-11-13T16:08:02.159Z,10.70
2022-11-13T16:11:08.621Z,10.50
2022-11-13T16:14:14.897Z,10.50
2022-11-13T16:17:21.255Z,10.40
2022-11-13T16:20:29.703Z,10.30
2022-11-13T16:23:36.121Z,10.30
2022-11-13T16:26:43.809Z,10.30
2022-11-13T16:29:50.517Z,10.20
2022-11-13T16:32:56.770Z,10.30
2022-11-13T16:36:06.700Z,10.10
2022-11-13T16:39:19.879Z,9.90
2022-11-13T16:42:36.310Z,10.00
2022-11-13T16:45:42.249Z,9.90
2022-11-13T16:48:50.856Z,9.90
2022-11-13T16:51:58.685Z,10.00
2022-11-13T16:55:06.820Z,10.00
2022-11-13T16:58:14.532Z,9.90
2022-11-13T17:01:22.638Z,9.80
2022-11-13T17:04:28.868Z,9.70
2022-11-13T17:07:36.712Z,9.50
2022-11-13T17:10:43.083Z,9.60
2022-11-13T17:13:53.116Z,9.50
2022-11-13T17:16:59.675Z,9.40
2022-11-13T17:20:06.171Z,9.30
2022-11-13T17:23:16.512Z,9.30
2022-11-13T17:26:22.677Z,9.20
2022-11-13T17:29:29.040Z,9.10
2022-11-13T17:32:35.476Z,7.90
2022-11-13T17:35:41.838Z,9.00
2022-11-13T17:38:49.924Z,9.00
2022-11-13T17:41:56.175Z,8.60
2022-11-13T17:45:03.309Z,8.80
2022-11-13T17:48:09.445Z,8.60
2022-11-13T17:51:16.453Z,8.60
2022-11-13T17:54:25.404Z,8.50
2022-11-13T17:57:33.300Z,8.40
2022-11-13T18:00:40.033Z,8.30
2022-11-13T18:03:46.536Z,8.30
2022-11-13T18:06:52.654Z,8.20
2022-11-13T18:10:00.543Z,8.10
2022-11-13T18:13:07.289Z,8.00
2022-11-13T18:16:14.639Z,8.00
2022-11-13T18:19:20.944Z,7.90
2022-11-13T18:22:27.551Z,7.90
2022-11-13T18:25:39.661Z,7.80
2022-11-13T18:28:46.710Z,7.80
2022-11-13T18:31:52.864Z,7.80
2022-11-13T18:34:59.450Z,7.80
2022-11-13T18:38:05.931Z,7.80
2022-11-13T18:41:20.691Z,7.80
2022-11-13T18:44:27.154Z,7.80
2022-11-13T18:47:33.303Z,7.80
2022-11-13T18:50:39.696Z,7.80
2022-11-13T18:53:48.431Z,7.90
2022-11-13T18:56:56.078Z,7.80
2022-11-13T19:00:02.409Z,7.80
2022-11-13T19:03:08.566Z,7.70
2022-11-13T19:06:18.053Z,7.50
2022-11-13T19:09:24.523Z,7.40
2022-11-13T19:12:35.026Z,7.40
2022-11-13T19:15:41.411Z,7.40
2022-11-13T19:18:51.829Z,7.40
2022-11-13T19:21:59.840Z,7.40
2022-11-13T19:25:08.723Z,7.30
2022-11-13T19:28:16.572Z,7.40
2022-11-13T19:31:23.695Z,7.40
2022-11-13T19:34:29.941Z,7.30
2022-11-13T19:37:36.393Z,7.30
2022-11-13T19:40:44.398Z,7.30
2022-11-13T19:43:52.117Z,7.20
2022-11-13T19:46:58.258Z,7.20
2022-11-13T19:50:07.460Z,7.10
2022-11-13T19:53:14.701Z,7.00
2022-11-13T19:56:21.516Z,7.00
2022-11-13T19:59:31.878Z,6.90
2022-11-13T20:02:38.111Z,6.80
2022-11-13T20:05:44.583Z,6.80
2022-11-13T20:08:50.702Z,7.00
2022-11-13T20:11:56.875Z,7.00
2022-11-13T20:15:04.823Z,7.00
2022-11-13T20:18:11.131Z,6.90
2022-11-13T20:21:17.357Z,6.90
2022-11-13T20:24:23.685Z,6.70
2022-11-13T20:27:30.361Z,6.70
2022-11-13T20:30:37.945Z,6.60
2022-11-13T20:33:44.737Z,6.50
2022-11-13T20:36:50.738Z,6.40
2022-11-13T20:39:57.485Z,7.70
2022-11-13T20:43:04.203Z,6.20
2022-11-13T20:46:12.798Z,6.20
2022-11-13T20:49:19.886Z,5.90
2022-11-13T20:52:26.298Z,5.80
2022-11-13T20:55:35.316Z,5.70
2022-11-13T20:58:41.971Z,5.60
2022-11-13T21:01:50.080Z,5.60
2022-11-13T21:04:56.478Z,5.50
2022-11-13T21:08:03.033Z,5.40
2022-11-13T21:11:09.873Z,5.30
2022-11-13T21:14:17.663Z,5.20
2022-11-13T21:17:25.051Z,6.80
2022-11-13T21:20:31.874Z,4.90
2022-11-13T21:23:38.452Z,4.80
2022-11-13T21:26:49.284Z,4.70
2022-11-13T21:29:55.652Z,4.70
2022-11-13T21:33:03.070Z,4.60
2022-11-13T21:36:11.920Z,4.70
2022-11-13T21:39:18.506Z,4.50
2022-11-13T21:42:25.693Z,4.40
2022-11-13T21:45:34.038Z,4.50
2022-11-13T21:48:42.027Z,4.50
2022-11-13T21:51:48.575Z,4.50
2022-11-13T21:54:55.122Z,4.50
2022-11-13T21:58:01.544Z,4.50
2022-11-13T22:01:07.731Z,4.50
2022-11-13T22:04:18.106Z,4.40
2022-11-13T22:07:24.622Z,4.30
2022-11-13T22:10:31.071Z,4.30
2022-11-13T22:13:36.814Z,4.60
2022-11-13T22:16:44.072Z,4.10
2022-11-13T22:19:51.346Z,4.00
2022-11-13T22:22:58.010Z,4.00
2022-11-13T22:26:04.823Z,4.00
2022-11-13T22:29:14.019Z,4.00
2022-11-13T22:32:20.483Z,4.00
2022-11-13T22:35:28.189Z,4.00
2022-11-13T22:38:34.636Z,4.00
2022-11-13T22:41:42.947Z,4.00
2022-11-13T22:44:55.866Z,4.00
2022-11-13T22:48:03.011Z,2.40
2022-11-13T22:51:11.696Z,4.10
2022-11-13T22:54:17.534Z,4.10
2022-11-13T22:57:24.000Z,4.10
2022-11-13T23:00:30.292Z,4.20
2022-11-13T23:03:38.553Z,4.20
2022-11-13T23:06:47.274Z,4.50
2022-11-13T23:09:53.740Z,4.00
2022-11-13T23:13:00.240Z,4.30
2022-11-13T23:16:06.511Z,4.40
2022-11-13T23:19:13.948Z,4.40
2022-11-13T23:22:22.131Z,4.30
2022-11-13T23:25:28.447Z,4.50
2022-11-13T23:28:34.616Z,4.40
2022-11-13T23:31:41.026Z,4.40
2022-11-13T23:35:02.425Z,4.40
2022-11-13T23:38:11.615Z,4.30
2022-11-13T23:41:17.763Z,4.20
2022-11-13T23:44:24.199Z,4.30
2022-11-13T23:47:30.171Z,4.20
2022-11-13T23:50:36.554Z,4.20
2022-11-13T23:53:44.503Z,4.20
2022-11-13T23:56:50.612Z,4.20
2022-11-13T23:59:59.445Z,4.20
